sensor_id;sensor_type;location;lat;lon;timestamp;P1;durP1;ratioP1;P2;durP2;ratioP2
26965;SDS011;14522;52.068;4.414;2023-04-24T00:01:49;1.40;;;0.20;;
26965;SDS011;14522;52.068;4.414;2023-04-24T00:04:16;1.23;;;0.35;;
26965;SDS011;14522;52.068;4.414;2023-04-24T00:06:43;1.98;;;0.40;;
26965;SDS011;14522;52.068;4.414;2023-04-24T00:09:10;3.28;;;0.50;;
26965;SDS011;14522;52.068;4.414;2023-04-24T00:11:36;1.67;;;0.50;;
26965;SDS011;14522;52.068;4.414;2023-04-24T00:14:03;1.45;;;0.40;;
26965;SDS011;14522;52.068;4.414;2023-04-24T00:16:29;1.85;;;0.30;;
26965;SDS011;14522;52.068;4.414;2023-04-24T00:18:55;1.88;;;0.28;;
26965;SDS011;14522;52.068;4.414;2023-04-24T00:21:22;0.40;;;0.20;;
26965;SDS011;14522;52.068;4.414;2023-04-24T00:23:51;2.45;;;0.50;;
26965;SDS011;14522;52.068;4.414;2023-04-24T00:26:19;1.50;;;0.38;;
26965;SDS011;14522;52.068;4.414;2023-04-24T00:28:45;0.50;;;0.30;;
26965;SDS011;14522;52.068;4.414;2023-04-24T00:31:11;4.28;;;0.40;;
26965;SDS011;14522;52.068;4.414;2023-04-24T00:33:38;1.55;;;0.28;;
26965;SDS011;14522;52.068;4.414;2023-04-24T00:36:04;0.98;;;0.30;;
26965;SDS011;14522;52.068;4.414;2023-04-24T00:38:32;0.90;;;0.30;;
26965;SDS011;14522;52.068;4.414;2023-04-24T00:40:58;1.60;;;0.63;;
26965;SDS011;14522;52.068;4.414;2023-04-24T00:43:24;0.70;;;0.20;;
26965;SDS011;14522;52.068;4.414;2023-04-24T00:45:51;0.85;;;0.45;;
26965;SDS011;14522;52.068;4.414;2023-04-24T00:48:17;0.80;;;0.10;;
26965;SDS011;14522;52.068;4.414;2023-04-24T00:50:44;1.15;;;0.30;;
26965;SDS011;14522;52.068;4.414;2023-04-24T00:53:11;1.45;;;0.30;;
26965;SDS011;14522;52.068;4.414;2023-04-24T00:55:37;1.17;;;0.38;;
26965;SDS011;14522;52.068;4.414;2023-04-24T00:58:04;2.85;;;0.17;;
26965;SDS011;14522;52.068;4.414;2023-04-24T01:00:31;0.20;;;0.08;;
26965;SDS011;14522;52.068;4.414;2023-04-24T01:02:57;1.15;;;0.20;;
26965;SDS011;14522;52.068;4.414;2023-04-24T01:05:25;1.20;;;0.28;;
26965;SDS011;14522;52.068;4.414;2023-04-24T01:07:52;2.22;;;0.35;;
26965;SDS011;14522;52.068;4.414;2023-04-24T01:10:18;1.83;;;0.30;;
26965;SDS011;14522;52.068;4.414;2023-04-24T01:12:46;2.20;;;0.32;;
26965;SDS011;14522;52.068;4.414;2023-04-24T01:15:12;2.25;;;0.40;;
26965;SDS011;14522;52.068;4.414;2023-04-24T01:17:39;0.30;;;0.20;;
26965;SDS011;14522;52.068;4.414;2023-04-24T01:20:05;0.90;;;0.30;;
26965;SDS011;14522;52.068;4.414;2023-04-24T01:22:33;1.45;;;0.30;;
26965;SDS011;14522;52.068;4.414;2023-04-24T01:25:00;1.58;;;0.30;;
26965;SDS011;14522;52.068;4.414;2023-04-24T01:27:26;2.25;;;0.30;;
26965;SDS011;14522;52.068;4.414;2023-04-24T01:29:52;1.80;;;0.35;;
26965;SDS011;14522;52.068;4.414;2023-04-24T01:32:19;1.85;;;0.38;;
26965;SDS011;14522;52.068;4.414;2023-04-24T01:34:46;0.40;;;0.10;;
26965;SDS011;14522;52.068;4.414;2023-04-24T01:37:13;1.10;;;0.30;;
26965;SDS011;14522;52.068;4.414;2023-04-24T01:39:39;1.67;;;0.22;;
26965;SDS011;14522;52.068;4.414;2023-04-24T01:42:06;0.40;;;0.10;;
26965;SDS011;14522;52.068;4.414;2023-04-24T01:44:33;2.13;;;0.32;;
26965;SDS011;14522;52.068;4.414;2023-04-24T01:47:00;1.02;;;0.17;;
26965;SDS011;14522;52.068;4.414;2023-04-24T01:49:27;0.60;;;0.10;;
26965;SDS011;14522;52.068;4.414;2023-04-24T01:51:53;2.58;;;0.20;;
26965;SDS011;14522;52.068;4.414;2023-04-24T01:54:19;1.27;;;0.30;;
26965;SDS011;14522;52.068;4.414;2023-04-24T01:56:46;1.55;;;0.30;;
26965;SDS011;14522;52.068;4.414;2023-04-24T01:59:12;1.15;;;0.35;;
26965;SDS011;14522;52.068;4.414;2023-04-24T02:01:39;1.67;;;0.30;;
26965;SDS011;14522;52.068;4.414;2023-04-24T02:04:06;4.35;;;0.30;;
26965;SDS011;14522;52.068;4.414;2023-04-24T02:06:33;1.30;;;0.22;;
26965;SDS011;14522;52.068;4.414;2023-04-24T02:08:59;5.68;;;0.52;;
26965;SDS011;14522;52.068;4.414;2023-04-24T02:11:26;0.50;;;0.20;;
26965;SDS011;14522;52.068;4.414;2023-04-24T02:13:52;1.48;;;0.40;;
26965;SDS011;14522;52.068;4.414;2023-04-24T02:16:19;1.67;;;0.20;;
26965;SDS011;14522;52.068;4.414;2023-04-24T02:18:45;1.00;;;0.17;;
26965;SDS011;14522;52.068;4.414;2023-04-24T02:21:12;0.70;;;0.20;;
26965;SDS011;14522;52.068;4.414;2023-04-24T02:23:38;1.77;;;0.30;;
26965;SDS011;14522;52.068;4.414;2023-04-24T02:26:05;0.75;;;0.20;;
26965;SDS011;14522;52.068;4.414;2023-04-24T02:28:31;1.75;;;0.30;;
26965;SDS011;14522;52.068;4.414;2023-04-24T02:30:58;2.30;;;0.20;;
26965;SDS011;14522;52.068;4.414;2023-04-24T02:33:24;3.00;;;0.20;;
26965;SDS011;14522;52.068;4.414;2023-04-24T02:35:51;1.58;;;0.13;;
26965;SDS011;14522;52.068;4.414;2023-04-24T02:38:17;1.08;;;0.30;;
26965;SDS011;14522;52.068;4.414;2023-04-24T02:40:43;1.58;;;0.25;;
26965;SDS011;14522;52.068;4.414;2023-04-24T02:43:10;1.40;;;0.25;;
26965;SDS011;14522;52.068;4.414;2023-04-24T02:45:36;2.22;;;0.40;;
26965;SDS011;14522;52.068;4.414;2023-04-24T02:48:04;1.23;;;0.30;;
26965;SDS011;14522;52.068;4.414;2023-04-24T02:50:30;0.82;;;0.22;;
26965;SDS011;14522;52.068;4.414;2023-04-24T02:52:57;3.58;;;0.30;;
26965;SDS011;14522;52.068;4.414;2023-04-24T02:55:24;3.08;;;0.30;;
26965;SDS011;14522;52.068;4.414;2023-04-24T02:57:51;0.65;;;0.17;;
26965;SDS011;14522;52.068;4.414;2023-04-24T03:00:17;1.95;;;0.25;;
26965;SDS011;14522;52.068;4.414;2023-04-24T03:02:43;2.28;;;0.20;;
26965;SDS011;14522;52.068;4.414;2023-04-24T03:05:10;1.85;;;0.28;;
26965;SDS011;14522;52.068;4.414;2023-04-24T03:07:38;1.45;;;0.10;;
26965;SDS011;14522;52.068;4.414;2023-04-24T03:10:04;2.15;;;0.30;;
26965;SDS011;14522;52.068;4.414;2023-04-24T03:12:31;0.50;;;0.30;;
26965;SDS011;14522;52.068;4.414;2023-04-24T03:14:58;3.30;;;0.45;;
26965;SDS011;14522;52.068;4.414;2023-04-24T03:17:24;1.50;;;0.20;;
26965;SDS011;14522;52.068;4.414;2023-04-24T03:19:51;1.73;;;0.20;;
26965;SDS011;14522;52.068;4.414;2023-04-24T03:22:17;1.38;;;0.20;;
26965;SDS011;14522;52.068;4.414;2023-04-24T03:24:43;0.60;;;0.10;;
26965;SDS011;14522;52.068;4.414;2023-04-24T03:27:10;2.75;;;0.22;;
26965;SDS011;14522;52.068;4.414;2023-04-24T03:29:36;0.80;;;0.22;;
26965;SDS011;14522;52.068;4.414;2023-04-24T03:32:03;0.68;;;0.20;;
26965;SDS011;14522;52.068;4.414;2023-04-24T03:34:29;0.68;;;0.20;;
26965;SDS011;14522;52.068;4.414;2023-04-24T03:36:56;2.35;;;0.30;;
26965;SDS011;14522;52.068;4.414;2023-04-24T03:39:22;1.40;;;0.13;;
26965;SDS011;14522;52.068;4.414;2023-04-24T03:41:48;0.57;;;0.20;;
26965;SDS011;14522;52.068;4.414;2023-04-24T03:44:15;2.53;;;0.30;;
26965;SDS011;14522;52.068;4.414;2023-04-24T03:46:41;0.85;;;0.30;;
26965;SDS011;14522;52.068;4.414;2023-04-24T03:49:07;2.17;;;0.32;;
26965;SDS011;14522;52.068;4.414;2023-04-24T03:51:34;2.25;;;0.30;;
26965;SDS011;14522;52.068;4.414;2023-04-24T03:54:00;1.27;;;0.40;;
26965;SDS011;14522;52.068;4.414;2023-04-24T03:56:26;1.92;;;0.20;;
26965;SDS011;14522;52.068;4.414;2023-04-24T03:58:53;2.10;;;0.25;;
26965;SDS011;14522;52.068;4.414;2023-04-24T04:01:19;1.83;;;0.40;;
26965;SDS011;14522;52.068;4.414;2023-04-24T04:03:47;2.90;;;0.50;;
26965;SDS011;14522;52.068;4.414;2023-04-24T04:06:13;1.80;;;0.40;;
26965;SDS011;14522;52.068;4.414;2023-04-24T04:08:40;3.35;;;0.30;;
26965;SDS011;14522;52.068;4.414;2023-04-24T04:11:07;0.43;;;0.20;;
26965;SDS011;14522;52.068;4.414;2023-04-24T04:13:33;4.50;;;0.40;;
26965;SDS011;14522;52.068;4.414;2023-04-24T04:15:59;1.60;;;0.63;;
26965;SDS011;14522;52.068;4.414;2023-04-24T04:18:26;2.83;;;0.68;;
26965;SDS011;14522;52.068;4.414;2023-04-24T04:20:52;2.95;;;0.82;;
26965;SDS011;14522;52.068;4.414;2023-04-24T04:23:19;1.48;;;0.68;;
26965;SDS011;14522;52.068;4.414;2023-04-24T04:25:45;5.05;;;1.17;;
26965;SDS011;14522;52.068;4.414;2023-04-24T04:28:13;3.22;;;0.93;;
26965;SDS011;14522;52.068;4.414;2023-04-24T04:30:39;5.35;;;1.45;;
26965;SDS011;14522;52.068;4.414;2023-04-24T04:33:06;9.57;;;1.23;;
26965;SDS011;14522;52.068;4.414;2023-04-24T04:35:33;5.88;;;1.38;;
26965;SDS011;14522;52.068;4.414;2023-04-24T04:37:59;6.15;;;1.20;;
26965;SDS011;14522;52.068;4.414;2023-04-24T04:40:26;9.15;;;1.25;;
26965;SDS011;14522;52.068;4.414;2023-04-24T04:42:54;6.47;;;1.55;;
26965;SDS011;14522;52.068;4.414;2023-04-24T04:45:21;6.55;;;1.27;;
26965;SDS011;14522;52.068;4.414;2023-04-24T04:47:47;6.30;;;1.85;;
26965;SDS011;14522;52.068;4.414;2023-04-24T04:50:14;5.97;;;2.45;;
26965;SDS011;14522;52.068;4.414;2023-04-24T04:52:42;8.07;;;2.75;;
26965;SDS011;14522;52.068;4.414;2023-04-24T04:55:09;5.93;;;2.30;;
26965;SDS011;14522;52.068;4.414;2023-04-24T04:57:35;13.30;;;4.68;;
26965;SDS011;14522;52.068;4.414;2023-04-24T05:00:01;11.73;;;4.13;;
26965;SDS011;14522;52.068;4.414;2023-04-24T05:02:28;7.55;;;3.67;;
26965;SDS011;14522;52.068;4.414;2023-04-24T05:04:54;16.50;;;4.68;;
26965;SDS011;14522;52.068;4.414;2023-04-24T05:07:21;11.00;;;4.18;;
26965;SDS011;14522;52.068;4.414;2023-04-24T05:09:48;12.82;;;4.18;;
26965;SDS011;14522;52.068;4.414;2023-04-24T05:12:14;12.52;;;4.20;;
26965;SDS011;14522;52.068;4.414;2023-04-24T05:14:40;9.80;;;3.42;;
26965;SDS011;14522;52.068;4.414;2023-04-24T05:17:07;10.25;;;3.45;;
26965;SDS011;14522;52.068;4.414;2023-04-24T05:19:33;11.43;;;3.22;;
26965;SDS011;14522;52.068;4.414;2023-04-24T05:22:02;10.32;;;3.13;;
26965;SDS011;14522;52.068;4.414;2023-04-24T05:24:30;14.25;;;3.47;;
26965;SDS011;14522;52.068;4.414;2023-04-24T05:26:56;10.40;;;3.10;;
26965;SDS011;14522;52.068;4.414;2023-04-24T05:29:24;11.48;;;3.50;;
26965;SDS011;14522;52.068;4.414;2023-04-24T05:31:52;14.32;;;3.72;;
26965;SDS011;14522;52.068;4.414;2023-04-24T05:34:18;11.88;;;3.65;;
26965;SDS011;14522;52.068;4.414;2023-04-24T05:36:45;13.48;;;3.80;;
26965;SDS011;14522;52.068;4.414;2023-04-24T05:39:11;8.25;;;2.92;;
26965;SDS011;14522;52.068;4.414;2023-04-24T05:41:37;7.10;;;2.60;;
26965;SDS011;14522;52.068;4.414;2023-04-24T05:44:04;5.85;;;3.38;;
26965;SDS011;14522;52.068;4.414;2023-04-24T05:46:30;14.55;;;3.70;;
26965;SDS011;14522;52.068;4.414;2023-04-24T05:48:56;7.93;;;2.92;;
26965;SDS011;14522;52.068;4.414;2023-04-24T05:51:23;8.95;;;2.85;;
26965;SDS011;14522;52.068;4.414;2023-04-24T05:53:50;12.20;;;3.33;;
26965;SDS011;14522;52.068;4.414;2023-04-24T05:56:16;9.90;;;2.53;;
26965;SDS011;14522;52.068;4.414;2023-04-24T05:58:42;15.85;;;2.60;;
26965;SDS011;14522;52.068;4.414;2023-04-24T06:01:09;16.45;;;3.03;;
26965;SDS011;14522;52.068;4.414;2023-04-24T06:03:35;16.10;;;3.47;;
26965;SDS011;14522;52.068;4.414;2023-04-24T06:06:02;19.65;;;2.75;;
26965;SDS011;14522;52.068;4.414;2023-04-24T06:08:28;14.73;;;3.28;;
26965;SDS011;14522;52.068;4.414;2023-04-24T06:10:55;13.27;;;3.33;;
26965;SDS011;14522;52.068;4.414;2023-04-24T06:13:21;11.90;;;2.55;;
26965;SDS011;14522;52.068;4.414;2023-04-24T06:15:48;12.05;;;2.85;;
26965;SDS011;14522;52.068;4.414;2023-04-24T06:18:14;16.92;;;2.33;;
26965;SDS011;14522;52.068;4.414;2023-04-24T06:20:41;18.27;;;3.03;;
26965;SDS011;14522;52.068;4.414;2023-04-24T06:23:07;15.05;;;2.92;;
26965;SDS011;14522;52.068;4.414;2023-04-24T06:25:33;10.57;;;2.60;;
26965;SDS011;14522;52.068;4.414;2023-04-24T06:28:00;16.77;;;3.97;;
26965;SDS011;14522;52.068;4.414;2023-04-24T06:30:27;15.35;;;2.65;;
26965;SDS011;14522;52.068;4.414;2023-04-24T06:32:54;9.50;;;2.13;;
26965;SDS011;14522;52.068;4.414;2023-04-24T06:35:28;11.88;;;3.13;;
26965;SDS011;14522;52.068;4.414;2023-04-24T06:37:54;14.02;;;2.40;;
26965;SDS011;14522;52.068;4.414;2023-04-24T06:40:22;8.73;;;1.77;;
26965;SDS011;14522;52.068;4.414;2023-04-24T06:42:48;15.93;;;3.10;;
26965;SDS011;14522;52.068;4.414;2023-04-24T06:45:15;13.02;;;2.15;;
26965;SDS011;14522;52.068;4.414;2023-04-24T06:47:41;14.18;;;2.75;;
26965;SDS011;14522;52.068;4.414;2023-04-24T06:50:08;13.02;;;2.50;;
26965;SDS011;14522;52.068;4.414;2023-04-24T06:52:34;15.50;;;2.72;;
26965;SDS011;14522;52.068;4.414;2023-04-24T06:55:02;11.60;;;2.08;;
26965;SDS011;14522;52.068;4.414;2023-04-24T06:57:29;15.77;;;2.28;;
26965;SDS011;14522;52.068;4.414;2023-04-24T06:59:55;14.05;;;2.40;;
26965;SDS011;14522;52.068;4.414;2023-04-24T07:02:22;11.68;;;2.22;;
26965;SDS011;14522;52.068;4.414;2023-04-24T07:04:48;13.25;;;2.85;;
26965;SDS011;14522;52.068;4.414;2023-04-24T07:07:15;19.63;;;2.28;;
26965;SDS011;14522;52.068;4.414;2023-04-24T07:09:42;12.40;;;1.90;;
26965;SDS011;14522;52.068;4.414;2023-04-24T07:12:11;11.77;;;2.15;;
26965;SDS011;14522;52.068;4.414;2023-04-24T07:14:37;10.23;;;1.63;;
26965;SDS011;14522;52.068;4.414;2023-04-24T07:17:04;15.07;;;2.15;;
26965;SDS011;14522;52.068;4.414;2023-04-24T07:19:30;13.90;;;2.40;;
26965;SDS011;14522;52.068;4.414;2023-04-24T07:21:57;7.15;;;1.73;;
26965;SDS011;14522;52.068;4.414;2023-04-24T07:24:24;14.25;;;1.70;;
26965;SDS011;14522;52.068;4.414;2023-04-24T07:26:52;8.77;;;1.95;;
26965;SDS011;14522;52.068;4.414;2023-04-24T07:29:18;13.60;;;2.22;;
26965;SDS011;14522;52.068;4.414;2023-04-24T07:31:46;8.02;;;1.58;;
26965;SDS011;14522;52.068;4.414;2023-04-24T07:34:12;10.93;;;1.98;;
26965;SDS011;14522;52.068;4.414;2023-04-24T07:36:39;13.88;;;2.03;;
26965;SDS011;14522;52.068;4.414;2023-04-24T07:39:06;8.85;;;1.50;;
26965;SDS011;14522;52.068;4.414;2023-04-24T07:41:34;15.32;;;2.00;;
26965;SDS011;14522;52.068;4.414;2023-04-24T07:44:00;10.48;;;1.80;;
26965;SDS011;14522;52.068;4.414;2023-04-24T07:46:27;10.98;;;2.17;;
26965;SDS011;14522;52.068;4.414;2023-04-24T07:48:56;15.43;;;2.08;;
26965;SDS011;14522;52.068;4.414;2023-04-24T07:51:38;13.10;;;2.85;;
26965;SDS011;14522;52.068;4.414;2023-04-24T07:54:05;13.13;;;2.45;;
26965;SDS011;14522;52.068;4.414;2023-04-24T07:56:32;11.25;;;1.95;;
26965;SDS011;14522;52.068;4.414;2023-04-24T07:58:59;12.57;;;1.63;;
26965;SDS011;14522;52.068;4.414;2023-04-24T08:01:26;9.70;;;1.70;;
26965;SDS011;14522;52.068;4.414;2023-04-24T08:03:52;10.07;;;2.03;;
26965;SDS011;14522;52.068;4.414;2023-04-24T08:06:19;14.60;;;1.85;;
26965;SDS011;14522;52.068;4.414;2023-04-24T08:08:45;9.32;;;1.98;;
26965;SDS011;14522;52.068;4.414;2023-04-24T08:11:12;8.38;;;1.65;;
26965;SDS011;14522;52.068;4.414;2023-04-24T08:13:38;7.13;;;2.30;;
26965;SDS011;14522;52.068;4.414;2023-04-24T08:16:05;6.82;;;1.92;;
26965;SDS011;14522;52.068;4.414;2023-04-24T08:18:31;7.28;;;1.45;;
26965;SDS011;14522;52.068;4.414;2023-04-24T08:20:58;4.45;;;0.90;;
26965;SDS011;14522;52.068;4.414;2023-04-24T08:23:27;7.90;;;1.80;;
26965;SDS011;14522;52.068;4.414;2023-04-24T08:25:55;3.88;;;1.42;;
26965;SDS011;14522;52.068;4.414;2023-04-24T08:28:21;5.65;;;1.38;;
26965;SDS011;14522;52.068;4.414;2023-04-24T08:30:47;9.60;;;1.23;;
26965;SDS011;14522;52.068;4.414;2023-04-24T08:33:14;4.18;;;1.33;;
26965;SDS011;14522;52.068;4.414;2023-04-24T08:35:41;6.15;;;1.23;;
26965;SDS011;14522;52.068;4.414;2023-04-24T08:38:07;5.43;;;1.35;;
26965;SDS011;14522;52.068;4.414;2023-04-24T08:40:34;12.93;;;1.50;;
26965;SDS011;14522;52.068;4.414;2023-04-24T08:43:01;5.38;;;1.10;;
26965;SDS011;14522;52.068;4.414;2023-04-24T08:45:27;7.03;;;1.10;;
26965;SDS011;14522;52.068;4.414;2023-04-24T08:47:54;9.15;;;0.98;;
26965;SDS011;14522;52.068;4.414;2023-04-24T08:50:21;4.88;;;1.25;;
26965;SDS011;14522;52.068;4.414;2023-04-24T08:52:51;6.65;;;1.80;;
26965;SDS011;14522;52.068;4.414;2023-04-24T08:55:20;4.63;;;0.90;;
26965;SDS011;14522;52.068;4.414;2023-04-24T08:57:50;5.22;;;0.73;;
26965;SDS011;14522;52.068;4.414;2023-04-24T09:00:18;4.65;;;0.80;;
26965;SDS011;14522;52.068;4.414;2023-04-24T09:02:44;4.13;;;0.82;;
26965;SDS011;14522;52.068;4.414;2023-04-24T09:05:13;2.30;;;0.70;;
26965;SDS011;14522;52.068;4.414;2023-04-24T09:07:40;5.07;;;1.02;;
26965;SDS011;14522;52.068;4.414;2023-04-24T09:10:07;8.75;;;0.88;;
26965;SDS011;14522;52.068;4.414;2023-04-24T09:12:34;2.90;;;0.63;;
26965;SDS011;14522;52.068;4.414;2023-04-24T09:15:01;2.47;;;0.80;;
26965;SDS011;14522;52.068;4.414;2023-04-24T09:17:33;8.45;;;1.30;;
26965;SDS011;14522;52.068;4.414;2023-04-24T09:20:00;5.72;;;0.80;;
26965;SDS011;14522;52.068;4.414;2023-04-24T09:22:28;5.95;;;1.20;;
26965;SDS011;14522;52.068;4.414;2023-04-24T09:25:02;4.50;;;0.88;;
26965;SDS011;14522;52.068;4.414;2023-04-24T09:27:31;4.95;;;0.70;;
26965;SDS011;14522;52.068;4.414;2023-04-24T09:29:58;5.43;;;0.90;;
26965;SDS011;14522;52.068;4.414;2023-04-24T09:32:25;4.03;;;0.80;;
26965;SDS011;14522;52.068;4.414;2023-04-24T09:35:11;5.78;;;1.17;;
26965;SDS011;14522;52.068;4.414;2023-04-24T09:44:58;3.20;;;0.68;;
26965;SDS011;14522;52.068;4.414;2023-04-24T09:47:40;2.83;;;0.40;;
26965;SDS011;14522;52.068;4.414;2023-04-24T09:50:13;2.78;;;0.68;;
26965;SDS011;14522;52.068;4.414;2023-04-24T09:52:42;4.07;;;0.80;;
26965;SDS011;14522;52.068;4.414;2023-04-24T09:55:19;3.22;;;0.70;;
26965;SDS011;14522;52.068;4.414;2023-04-24T09:57:53;6.25;;;0.93;;
26965;SDS011;14522;52.068;4.414;2023-04-24T10:00:30;1.95;;;0.60;;
26965;SDS011;14522;52.068;4.414;2023-04-24T10:02:57;6.82;;;1.00;;
26965;SDS011;14522;52.068;4.414;2023-04-24T10:05:28;3.33;;;0.70;;
26965;SDS011;14522;52.068;4.414;2023-04-24T10:08:02;6.70;;;0.80;;
26965;SDS011;14522;52.068;4.414;2023-04-24T10:10:29;2.25;;;0.55;;
26965;SDS011;14522;52.068;4.414;2023-04-24T10:12:56;3.55;;;0.60;;
26965;SDS011;14522;52.068;4.414;2023-04-24T10:15:23;1.35;;;0.45;;
26965;SDS011;14522;52.068;4.414;2023-04-24T10:17:50;4.20;;;0.70;;
26965;SDS011;14522;52.068;4.414;2023-04-24T10:22:47;2.13;;;0.60;;
26965;SDS011;14522;52.068;4.414;2023-04-24T10:25:16;6.40;;;0.90;;
26965;SDS011;14522;52.068;4.414;2023-04-24T10:27:43;7.30;;;1.20;;
26965;SDS011;14522;52.068;4.414;2023-04-24T10:30:12;3.53;;;0.80;;
26965;SDS011;14522;52.068;4.414;2023-04-24T10:32:39;3.38;;;1.05;;
26965;SDS011;14522;52.068;4.414;2023-04-24T10:35:06;8.30;;;1.00;;
26965;SDS011;14522;52.068;4.414;2023-04-24T10:37:42;4.45;;;0.68;;
26965;SDS011;14522;52.068;4.414;2023-04-24T10:40:10;4.80;;;0.85;;
26965;SDS011;14522;52.068;4.414;2023-04-24T10:42:40;5.78;;;0.95;;
26965;SDS011;14522;52.068;4.414;2023-04-24T10:45:15;5.47;;;0.93;;
26965;SDS011;14522;52.068;4.414;2023-04-24T10:47:42;6.20;;;1.20;;
26965;SDS011;14522;52.068;4.414;2023-04-24T10:50:11;11.10;;;1.67;;
26965;SDS011;14522;52.068;4.414;2023-04-24T10:52:47;5.88;;;1.00;;
26965;SDS011;14522;52.068;4.414;2023-04-24T10:55:14;2.63;;;0.45;;
26965;SDS011;14522;52.068;4.414;2023-04-24T10:58:00;3.78;;;1.00;;
26965;SDS011;14522;52.068;4.414;2023-04-24T11:00:27;1.45;;;0.50;;
26965;SDS011;14522;52.068;4.414;2023-04-24T11:02:53;4.93;;;0.77;;
26965;SDS011;14522;52.068;4.414;2023-04-24T11:05:21;5.80;;;0.80;;
26965;SDS011;14522;52.068;4.414;2023-04-24T11:10:33;3.05;;;0.65;;
26965;SDS011;14522;52.068;4.414;2023-04-24T11:13:01;3.55;;;0.95;;
26965;SDS011;14522;52.068;4.414;2023-04-24T11:15:28;7.50;;;0.95;;
26965;SDS011;14522;52.068;4.414;2023-04-24T11:17:55;8.60;;;1.50;;
26965;SDS011;14522;52.068;4.414;2023-04-24T11:20:22;4.10;;;0.60;;
26965;SDS011;14522;52.068;4.414;2023-04-24T11:22:54;5.63;;;1.10;;
26965;SDS011;14522;52.068;4.414;2023-04-24T11:25:21;4.30;;;0.90;;
26965;SDS011;14522;52.068;4.414;2023-04-24T11:27:48;5.25;;;1.00;;
26965;SDS011;14522;52.068;4.414;2023-04-24T11:30:19;5.45;;;0.85;;
26965;SDS011;14522;52.068;4.414;2023-04-24T11:32:50;10.93;;;1.25;;
26965;SDS011;14522;52.068;4.414;2023-04-24T11:35:21;7.88;;;1.00;;
26965;SDS011;14522;52.068;4.414;2023-04-24T11:37:50;4.00;;;1.10;;
26965;SDS011;14522;52.068;4.414;2023-04-24T11:40:20;6.32;;;1.02;;
26965;SDS011;14522;52.068;4.414;2023-04-24T11:42:49;5.88;;;0.80;;
26965;SDS011;14522;52.068;4.414;2023-04-24T11:47:42;7.75;;;1.27;;
26965;SDS011;14522;52.068;4.414;2023-04-24T11:50:13;8.15;;;1.23;;
26965;SDS011;14522;52.068;4.414;2023-04-24T11:52:40;9.15;;;1.02;;
26965;SDS011;14522;52.068;4.414;2023-04-24T11:55:28;8.55;;;1.65;;
26965;SDS011;14522;52.068;4.414;2023-04-24T11:57:55;5.80;;;1.02;;
26965;SDS011;14522;52.068;4.414;2023-04-24T12:00:27;9.20;;;1.48;;
26965;SDS011;14522;52.068;4.414;2023-04-24T12:05:32;5.25;;;0.90;;
26965;SDS011;14522;52.068;4.414;2023-04-24T12:07:59;7.28;;;1.52;;
26965;SDS011;14522;52.068;4.414;2023-04-24T12:10:27;7.72;;;1.48;;
26965;SDS011;14522;52.068;4.414;2023-04-24T12:12:54;6.20;;;1.10;;
26965;SDS011;14522;52.068;4.414;2023-04-24T12:15:21;7.15;;;1.10;;
26965;SDS011;14522;52.068;4.414;2023-04-24T12:17:49;8.70;;;1.45;;
26965;SDS011;14522;52.068;4.414;2023-04-24T12:20:16;6.53;;;1.40;;
26965;SDS011;14522;52.068;4.414;2023-04-24T12:25:11;10.23;;;1.48;;
26965;SDS011;14522;52.068;4.414;2023-04-24T12:27:37;9.60;;;1.90;;
26965;SDS011;14522;52.068;4.414;2023-04-24T12:30:04;11.45;;;1.95;;
26965;SDS011;14522;52.068;4.414;2023-04-24T12:32:31;11.52;;;1.95;;
26965;SDS011;14522;52.068;4.414;2023-04-24T12:34:58;7.75;;;1.40;;
26965;SDS011;14522;52.068;4.414;2023-04-24T12:37:25;6.38;;;1.00;;
26965;SDS011;14522;52.068;4.414;2023-04-24T12:40:05;8.38;;;1.83;;
26965;SDS011;14522;52.068;4.414;2023-04-24T12:42:33;7.82;;;1.45;;
26965;SDS011;14522;52.068;4.414;2023-04-24T12:45:01;6.93;;;1.70;;
26965;SDS011;14522;52.068;4.414;2023-04-24T12:47:28;10.60;;;1.63;;
26965;SDS011;14522;52.068;4.414;2023-04-24T12:49:55;8.25;;;1.38;;
26965;SDS011;14522;52.068;4.414;2023-04-24T12:52:25;7.50;;;1.63;;
26965;SDS011;14522;52.068;4.414;2023-04-24T12:54:55;7.22;;;1.58;;
26965;SDS011;14522;52.068;4.414;2023-04-24T12:57:25;9.40;;;1.80;;
26965;SDS011;14522;52.068;4.414;2023-04-24T12:59:53;10.43;;;2.22;;
26965;SDS011;14522;52.068;4.414;2023-04-24T13:02:20;15.68;;;2.60;;
26965;SDS011;14522;52.068;4.414;2023-04-24T13:04:48;16.67;;;2.22;;
26965;SDS011;14522;52.068;4.414;2023-04-24T13:07:15;12.02;;;1.88;;
26965;SDS011;14522;52.068;4.414;2023-04-24T13:09:42;8.75;;;1.75;;
26965;SDS011;14522;52.068;4.414;2023-04-24T13:12:09;9.30;;;1.70;;
26965;SDS011;14522;52.068;4.414;2023-04-24T13:14:36;7.78;;;1.50;;
26965;SDS011;14522;52.068;4.414;2023-04-24T13:17:02;6.63;;;1.40;;
26965;SDS011;14522;52.068;4.414;2023-04-24T13:19:29;5.70;;;1.60;;
26965;SDS011;14522;52.068;4.414;2023-04-24T13:21:56;7.50;;;1.98;;
26965;SDS011;14522;52.068;4.414;2023-04-24T13:24:23;7.53;;;1.98;;
26965;SDS011;14522;52.068;4.414;2023-04-24T13:26:52;9.18;;;1.65;;
26965;SDS011;14522;52.068;4.414;2023-04-24T13:29:19;7.55;;;1.35;;
26965;SDS011;14522;52.068;4.414;2023-04-24T13:31:46;6.88;;;1.55;;
26965;SDS011;14522;52.068;4.414;2023-04-24T13:34:13;10.15;;;1.63;;
26965;SDS011;14522;52.068;4.414;2023-04-24T13:36:39;9.70;;;2.10;;
26965;SDS011;14522;52.068;4.414;2023-04-24T13:39:06;8.73;;;1.67;;
26965;SDS011;14522;52.068;4.414;2023-04-24T13:41:33;9.27;;;1.77;;
26965;SDS011;14522;52.068;4.414;2023-04-24T13:43:59;13.25;;;2.10;;
26965;SDS011;14522;52.068;4.414;2023-04-24T13:46:26;7.97;;;1.85;;
26965;SDS011;14522;52.068;4.414;2023-04-24T13:48:52;7.88;;;1.73;;
26965;SDS011;14522;52.068;4.414;2023-04-24T13:51:19;4.38;;;1.10;;
26965;SDS011;14522;52.068;4.414;2023-04-24T13:53:45;10.40;;;1.73;;
26965;SDS011;14522;52.068;4.414;2023-04-24T13:56:11;11.82;;;2.47;;
26965;SDS011;14522;52.068;4.414;2023-04-24T13:58:39;7.90;;;2.08;;
26965;SDS011;14522;52.068;4.414;2023-04-24T14:01:06;15.95;;;2.40;;
26965;SDS011;14522;52.068;4.414;2023-04-24T14:03:33;6.85;;;1.60;;
26965;SDS011;14522;52.068;4.414;2023-04-24T14:05:59;5.50;;;1.52;;
26965;SDS011;14522;52.068;4.414;2023-04-24T14:08:26;9.00;;;2.17;;
26965;SDS011;14522;52.068;4.414;2023-04-24T14:10:52;8.20;;;1.75;;
26965;SDS011;14522;52.068;4.414;2023-04-24T14:13:19;8.20;;;2.13;;
26965;SDS011;14522;52.068;4.414;2023-04-24T14:15:45;8.95;;;2.30;;
26965;SDS011;14522;52.068;4.414;2023-04-24T14:18:12;9.60;;;2.90;;
26965;SDS011;14522;52.068;4.414;2023-04-24T14:20:38;11.38;;;2.88;;
26965;SDS011;14522;52.068;4.414;2023-04-24T14:23:05;9.35;;;2.30;;
26965;SDS011;14522;52.068;4.414;2023-04-24T14:25:31;8.25;;;2.10;;
26965;SDS011;14522;52.068;4.414;2023-04-24T14:27:58;6.78;;;1.40;;
26965;SDS011;14522;52.068;4.414;2023-04-24T14:30:24;13.30;;;2.20;;
26965;SDS011;14522;52.068;4.414;2023-04-24T14:32:51;11.52;;;2.53;;
26965;SDS011;14522;52.068;4.414;2023-04-24T14:35:17;11.25;;;2.10;;
26965;SDS011;14522;52.068;4.414;2023-04-24T14:37:44;9.35;;;2.22;;
26965;SDS011;14522;52.068;4.414;2023-04-24T14:40:10;10.13;;;2.10;;
26965;SDS011;14522;52.068;4.414;2023-04-24T14:42:57;8.43;;;1.77;;
26965;SDS011;14522;52.068;4.414;2023-04-24T14:45:24;9.50;;;2.25;;
26965;SDS011;14522;52.068;4.414;2023-04-24T14:47:50;7.85;;;2.05;;
26965;SDS011;14522;52.068;4.414;2023-04-24T14:50:19;9.63;;;1.75;;
26965;SDS011;14522;52.068;4.414;2023-04-24T14:52:50;7.53;;;1.95;;
26965;SDS011;14522;52.068;4.414;2023-04-24T14:55:16;8.80;;;2.22;;
26965;SDS011;14522;52.068;4.414;2023-04-24T14:57:43;8.95;;;2.17;;
26965;SDS011;14522;52.068;4.414;2023-04-24T15:00:09;10.85;;;2.05;;
26965;SDS011;14522;52.068;4.414;2023-04-24T15:02:36;11.13;;;2.10;;
26965;SDS011;14522;52.068;4.414;2023-04-24T15:05:06;12.25;;;2.08;;
26965;SDS011;14522;52.068;4.414;2023-04-24T15:07:33;9.52;;;2.22;;